Bingham, Illinois
Current Conditions -  °F | °C
As of 1:35 AM on Saturday 29 Nov 2014 (Local Time) from K3LF Reporting Station
Clear Clear  
Wind Chill: 28°   Ceiling: Unl
Heat Index: 37°   Visibility: 10mi
Dew Point: 32°   Wind: 14mph
Humidity: 82%   Direction: 170°S
Pressure: 29.85"   Gusts: NA
Location:  39.11°N, 89.21°W
Report Text: K3LF 290735Z AUTO 17012KT 10SM CLR 03/00 A2985 RMK AO2 T00280000
Loading
Personal Weather Stations






























Interactive Weather Map New forecast layout! Learn more

10-Day Weather Forecast

Advertisements
Track Severe Weather on mobile